Time;durP1;ratioP1;P1;durP2;ratioP2;P2;SDS_P1;SDS_P2;PMS_P1;PMS_P2;Temp;Humidity;BMP_temperature;BMP_pressure;BME280_temperature;BME280_humidity;BME280_pressure;Samples;Min_cycle;Max_cycle;Signal;HPM_P1;HPM_P2
2023/10/13 00:01:37;;;;;;;18.23;10.90;;;16.40;99.90;;;;;;5023028;28;20490;-65
2023/10/13 00:04:05;;;;;;;20.20;11.25;;;16.40;99.90;;;;;;5025683;28;20037;-65
2023/10/13 00:06:31;;;;;;;23.17;12.02;;;16.40;99.90;;;;;;5022008;28;20036;-65
2023/10/13 00:08:59;;;;;;;20.92;10.38;;;16.50;99.90;;;;;;5025174;28;20112;-65
2023/10/13 00:11:26;;;;;;;22.23;11.07;;;16.50;99.90;;;;;;5015525;28;20029;-65
2023/10/13 00:13:53;;;;;;;19.87;11.27;;;16.50;99.90;;;;;;5022157;28;20283;-65
2023/10/13 00:16:28;;;;;;;17.48;10.95;;;16.60;99.90;;;;;;5025014;28;20022;-65
2023/10/13 00:18:57;;;;;;;16.95;9.63;;;16.60;99.90;;;;;;5023394;28;20088;-65
2023/10/13 00:21:32;;;;;;;16.17;10.05;;;16.60;99.90;;;;;;5023971;28;20033;-65
2023/10/13 00:24:05;;;;;;;19.55;10.20;;;16.60;99.90;;;;;;5024815;28;20410;-66
2023/10/13 00:26:31;;;;;;;23.83;10.88;;;16.60;99.90;;;;;;5022636;28;20052;-65
2023/10/13 00:29:29;;;;;;;20.08;10.45;;;16.60;99.90;;;;;;5024727;28;20148;-65
2023/10/13 00:31:48;;;;;;;18.23;11.10;;;16.70;99.90;;;;;;5022774;28;20045;-65
2023/10/13 00:34:47;;;;;;;17.35;10.07;;;16.70;99.90;;;;;;5007897;28;20029;-65
2023/10/13 00:37:27;;;;;;;20.95;10.65;;;16.70;99.90;;;;;;5019964;28;20427;-66
2023/10/13 00:39:56;;;;;;;24.53;11.07;;;16.70;99.90;;;;;;5023720;28;20037;-66
2023/10/13 00:42:33;;;;;;;18.45;9.73;;;16.70;99.90;;;;;;5022939;28;20105;-66
2023/10/13 00:45:00;;;;;;;16.17;10.23;;;16.70;99.90;;;;;;5022409;28;20017;-67
2023/10/13 00:48:01;;;;;;;26.63;11.20;;;16.70;99.90;;;;;;5026725;28;20029;-64
2023/10/13 00:50:18;;;;;;;20.27;10.25;;;16.70;99.90;;;;;;5023710;28;20050;-64
2023/10/13 00:52:46;;;;;;;24.15;9.80;;;16.80;99.90;;;;;;5024420;28;20029;-64
2023/10/13 00:55:14;;;;;;;23.70;11.35;;;16.80;99.90;;;;;;5028766;28;20522;-64
2023/10/13 00:57:41;;;;;;;19.02;9.88;;;16.70;99.90;;;;;;5008999;28;20029;-64
2023/10/13 01:00:24;;;;;;;23.13;11.15;;;16.80;99.90;;;;;;5026537;28;20033;-64
2023/10/13 01:03:06;;;;;;;20.25;9.70;;;16.80;99.90;;;;;;5025394;28;20124;-64
2023/10/13 01:05:37;;;;;;;21.50;10.35;;;16.80;99.90;;;;;;5025997;28;20476;-64
2023/10/13 01:08:05;;;;;;;17.85;10.50;;;16.80;99.90;;;;;;5025060;28;20031;-64
2023/10/13 01:10:32;;;;;;;22.70;11.40;;;16.80;99.90;;;;;;5024419;28;20759;-64
2023/10/13 01:13:02;;;;;;;18.75;10.20;;;16.80;99.90;;;;;;5022340;28;20037;-64
2023/10/13 01:15:34;;;;;;;21.77;9.93;;;16.90;99.90;;;;;;5026172;28;20025;-64
2023/10/13 01:18:16;;;;;;;17.73;10.32;;;16.80;99.90;;;;;;5022217;28;20160;-64
2023/10/13 01:20:49;;;;;;;18.85;11.70;;;16.80;99.90;;;;;;5026039;28;20041;-64
2023/10/13 01:23:18;;;;;;;18.38;10.48;;;16.90;99.90;;;;;;5007890;28;20037;-65
2023/10/13 01:25:47;;;;;;;17.95;10.52;;;16.90;99.90;;;;;;5023750;28;20535;-64
2023/10/13 01:28:16;;;;;;;19.85;12.10;;;16.90;99.90;;;;;;5011205;28;20045;-64
2023/10/13 01:30:49;;;;;;;;;;;17.00;99.90;;;;;;5025729;28;20108;-64
2023/10/13 01:33:15;;;;;;;19.27;10.75;;;16.90;99.90;;;;;;5023462;28;19909;-65
2023/10/13 01:35:47;;;;;;;20.08;10.57;;;16.90;99.90;;;;;;5021931;28;20040;-65
2023/10/13 01:38:17;;;;;;;25.02;10.93;;;17.00;99.90;;;;;;5023114;28;20526;-65
2023/10/13 01:40:43;;;;;;;21.05;10.90;;;17.00;99.90;;;;;;5026442;28;20025;-65
2023/10/13 01:43:10;;;;;;;21.15;11.68;;;17.00;99.90;;;;;;5025177;28;20026;-65
2023/10/13 01:45:49;;;;;;;22.00;11.55;;;16.90;99.90;;;;;;5026666;28;20037;-65
2023/10/13 01:48:21;;;;;;;18.63;11.45;;;17.00;99.90;;;;;;5023731;28;20037;-65
2023/10/13 01:50:55;;;;;;;21.15;11.68;;;17.00;99.90;;;;;;5022798;28;20033;-65
2023/10/13 01:53:23;;;;;;;21.40;12.07;;;16.90;99.90;;;;;;5023799;28;20033;-65
2023/10/13 01:55:50;;;;;;;;;;;17.00;99.90;;;;;;5024385;28;20053;-65
2023/10/13 01:58:16;;;;;;;18.80;11.27;;;16.90;99.90;;;;;;5025270;28;19911;-65
2023/10/13 02:00:42;;;;;;;19.52;11.65;;;17.00;99.90;;;;;;5022957;28;20029;-65
2023/10/13 02:03:15;;;;;;;23.17;13.07;;;16.90;99.90;;;;;;5021976;28;20475;-65
2023/10/13 02:05:48;;;;;;;26.98;12.18;;;17.00;99.90;;;;;;5009760;28;20029;-65
2023/10/13 02:08:24;;;;;;;23.35;13.52;;;16.90;99.90;;;;;;5022015;28;20468;-65
2023/10/13 02:10:51;;;;;;;25.63;13.52;;;17.00;99.90;;;;;;5021461;28;20044;-65
2023/10/13 02:13:18;;;;;;;21.10;11.73;;;16.90;99.90;;;;;;5020967;28;20032;-65
2023/10/13 02:15:48;;;;;;;21.98;12.65;;;16.90;99.90;;;;;;5026743;28;20088;-65
2023/10/13 02:18:26;;;;;;;23.20;13.07;;;16.90;99.90;;;;;;5011679;28;20395;-65
2023/10/13 02:20:55;;;;;;;;;;;16.90;99.90;;;;;;5026555;28;20499;-65
2023/10/13 02:23:29;;;;;;;25.60;12.52;;;16.90;99.90;;;;;;5024976;28;19917;-65
2023/10/13 02:26:02;;;;;;;23.30;13.13;;;16.90;99.90;;;;;;5025655;28;20068;-65
2023/10/13 02:28:33;;;;;;;25.02;13.15;;;16.90;99.90;;;;;;5029467;28;20025;-65
2023/10/13 02:31:03;;;;;;;27.75;14.38;;;16.90;99.90;;;;;;5026391;28;20026;-65
2023/10/13 02:33:32;;;;;;;27.48;12.43;;;16.90;99.90;;;;;;5026029;28;20033;-65
2023/10/13 02:36:05;;;;;;;23.15;13.50;;;17.00;99.90;;;;;;5012915;28;20029;-65
2023/10/13 02:41:28;;;;;;;22.02;13.30;;;16.90;99.90;;;;;;5029578;28;20025;-65
2023/10/13 02:43:55;;;;;;;23.50;13.52;;;16.90;99.90;;;;;;5026752;28;20071;-65
2023/10/13 02:46:22;;;;;;;27.08;14.18;;;16.90;99.90;;;;;;5025954;28;20514;-65
2023/10/13 02:48:53;;;;;;;24.85;14.95;;;16.90;99.90;;;;;;5026294;28;20021;-65
2023/10/13 02:51:25;;;;;;;29.80;14.15;;;16.90;99.90;;;;;;5023994;28;20644;-65
2023/10/13 02:53:52;;;;;;;24.63;14.00;;;16.90;99.90;;;;;;5028893;28;20071;-65
2023/10/13 02:56:21;;;;;;;25.58;14.73;;;16.90;99.90;;;;;;5013984;28;20180;-65
2023/10/13 02:58:54;;;;;;;24.95;14.90;;;16.90;99.90;;;;;;5012404;28;20021;-65
2023/10/13 03:01:22;;;;;;;23.67;15.10;;;17.00;99.90;;;;;;5023515;28;20033;-65
2023/10/13 03:03:54;;;;;;;28.88;17.38;;;16.90;99.90;;;;;;5024098;28;20049;-65
2023/10/13 03:06:33;;;;;;;24.10;14.63;;;17.00;99.90;;;;;;5025102;28;20033;-65
2023/10/13 03:09:15;;;;;;;28.55;15.77;;;17.00;99.90;;;;;;5027553;28;20029;-65
2023/10/13 03:11:49;;;;;;;24.02;14.48;;;17.00;99.90;;;;;;5025806;28;20033;-65
2023/10/13 03:14:26;;;;;;;26.35;15.05;;;17.00;99.90;;;;;;5026485;28;20033;-65
2023/10/13 03:17:02;;;;;;;26.43;14.70;;;16.90;99.90;;;;;;5024455;28;21006;-65
2023/10/13 03:19:32;;;;;;;21.65;14.43;;;17.00;99.90;;;;;;5025864;28;20289;-65
2023/10/13 03:22:09;;;;;;;24.55;14.98;;;16.90;99.90;;;;;;5027399;28;20029;-65
2023/10/13 03:24:36;;;;;;;24.03;14.53;;;17.00;99.90;;;;;;5023514;28;20086;-65
2023/10/13 03:27:08;;;;;;;21.23;14.18;;;17.00;99.90;;;;;;5026830;28;20548;-65
2023/10/13 03:29:35;;;;;;;24.05;14.30;;;17.00;99.90;;;;;;5022962;28;20032;-65
2023/10/13 03:32:11;;;;;;;22.93;14.37;;;17.00;99.90;;;;;;5027742;28;20017;-65
2023/10/13 03:34:46;;;;;;;20.60;14.55;;;17.00;99.90;;;;;;5025172;28;20032;-65
2023/10/13 03:37:18;;;;;;;22.67;14.80;;;17.00;99.90;;;;;;5023977;28;20037;-65
2023/10/13 03:39:45;;;;;;;22.33;14.38;;;17.00;99.90;;;;;;5027768;28;20078;-65
2023/10/13 03:42:18;;;;;;;27.77;15.80;;;17.00;99.90;;;;;;5024394;28;20017;-65
2023/10/13 03:44:46;;;;;;;23.02;14.60;;;17.00;99.90;;;;;;5027972;28;20030;-65
2023/10/13 03:47:18;;;;;;;23.67;15.10;;;17.00;99.90;;;;;;5023699;28;20479;-65
2023/10/13 03:49:51;;;;;;;21.33;13.82;;;17.00;99.90;;;;;;5026072;28;20037;-66
2023/10/13 03:52:22;;;;;;;25.95;14.15;;;17.00;99.90;;;;;;5026337;28;20082;-65
2023/10/13 03:54:51;;;;;;;26.83;13.38;;;17.00;99.90;;;;;;5024703;28;20030;-65
2023/10/13 03:57:16;;;;;;;20.25;13.30;;;17.00;99.90;;;;;;5022395;28;20060;-65
2023/10/13 03:59:47;;;;;;;22.92;14.25;;;17.10;99.90;;;;;;5023264;28;20081;-65
2023/10/13 04:02:17;;;;;;;26.48;13.00;;;17.10;99.90;;;;;;5025498;28;20025;-65
2023/10/13 04:04:52;;;;;;;27.60;13.65;;;17.10;99.90;;;;;;5025528;28;20105;-65
2023/10/13 04:07:39;;;;;;;20.60;12.88;;;17.20;99.90;;;;;;5026723;28;20029;-65
2023/10/13 04:15:41;;;;;;;19.67;12.23;;;17.10;99.90;;;;;;5023333;28;20416;-66
2023/10/13 04:18:18;;;;;;;19.48;12.15;;;17.10;99.90;;;;;;5026309;28;20068;-66
2023/10/13 04:20:46;;;;;;;20.48;11.50;;;17.10;99.90;;;;;;5024243;28;20108;-65
2023/10/13 04:23:18;;;;;;;;;;;17.10;99.90;;;;;;5026555;28;20399;-65
2023/10/13 04:28:33;;;;;;;19.40;10.70;;;17.10;99.90;;;;;;5025374;28;20022;-65
2023/10/13 04:31:39;;;;;;;18.42;11.00;;;17.10;99.90;;;;;;5021760;28;20553;-65
2023/10/13 04:34:02;;;;;;;15.88;10.73;;;17.00;99.90;;;;;;5023980;28;20073;-65
2023/10/13 04:38:59;;;;;;;;;;;17.00;99.90;;;;;;5027158;28;20762;-65
2023/10/13 04:41:31;;;;;;;17.65;10.23;;;17.00;99.90;;;;;;5023122;28;20406;-66
2023/10/13 04:44:04;;;;;;;16.67;10.73;;;17.00;99.90;;;;;;5022326;28;20072;-65
2023/10/13 04:49:29;;;;;;;18.25;10.20;;;17.00;99.90;;;;;;4988541;28;20075;-65
2023/10/13 04:52:00;;;;;;;16.00;9.23;;;17.00;99.90;;;;;;5023599;28;20025;-65
2023/10/13 04:54:33;;;;;;;14.85;10.32;;;17.00;99.90;;;;;;5026026;28;20079;-66
2023/10/13 04:57:23;;;;;;;18.40;10.32;;;17.00;99.90;;;;;;5024806;28;20028;-66
2023/10/13 05:49:20;;;;;;;15.75;9.35;;;17.10;99.90;;;;;;5024187;28;20029;-72
2023/10/13 06:29:57;;;;;;;12.95;8.52;;;17.10;99.90;;;;;;5026085;28;20068;-70
2023/10/13 06:32:26;;;;;;;12.98;6.97;;;17.10;99.90;;;;;;5021187;28;20053;-70
2023/10/13 06:35:05;;;;;;;13.60;7.20;;;17.10;99.90;;;;;;5028969;28;20333;-70
2023/10/13 06:37:32;;;;;;;13.60;7.38;;;17.10;99.90;;;;;;5028406;28;20037;-70
2023/10/13 06:40:07;;;;;;;12.70;8.25;;;17.10;99.90;;;;;;5023348;28;20044;-70
2023/10/13 06:42:42;;;;;;;10.45;7.07;;;17.00;99.90;;;;;;5025244;28;20096;-71
2023/10/13 06:45:08;;;;;;;10.77;7.38;;;17.00;99.90;;;;;;5028457;28;20029;-71
2023/10/13 06:47:41;;;;;;;14.55;7.35;;;17.10;99.90;;;;;;5030220;28;20029;-71
2023/10/13 06:50:15;;;;;;;14.73;7.93;;;17.10;99.90;;;;;;5023454;28;21675;-71
2023/10/13 06:52:44;;;;;;;15.10;7.47;;;17.10;99.90;;;;;;5026627;28;20030;-71
2023/10/13 06:55:34;;;;;;;13.45;7.28;;;17.10;99.90;;;;;;5026826;28;20029;-70
2023/10/13 06:58:00;;;;;;;12.23;7.03;;;17.10;99.90;;;;;;5026550;28;20449;-71
2023/10/13 07:00:33;;;;;;;16.15;8.13;;;17.20;99.90;;;;;;5028039;28;20033;-71
2023/10/13 07:03:05;;;;;;;13.30;7.20;;;17.20;99.90;;;;;;5027149;28;20028;-71
2023/10/13 07:05:41;;;;;;;10.93;6.28;;;17.20;99.90;;;;;;5024896;28;20039;-71
2023/10/13 07:08:08;;;;;;;10.38;7.38;;;17.20;99.90;;;;;;5032004;28;20037;-71
2023/10/13 07:13:19;;;;;;;11.65;7.43;;;17.20;99.90;;;;;;5030251;28;20040;-71
2023/10/13 07:15:48;;;;;;;12.50;6.90;;;17.20;99.90;;;;;;5027862;28;20021;-71
2023/10/13 07:18:23;;;;;;;14.63;7.28;;;17.20;99.90;;;;;;5023974;28;20032;-71
2023/10/13 07:20:57;;;;;;;14.70;7.20;;;17.20;99.90;;;;;;5029883;28;20055;-71
2023/10/13 07:23:25;;;;;;;15.85;6.82;;;17.20;99.90;;;;;;5028162;28;20029;-70
2023/10/13 07:25:55;;;;;;;;;;;17.30;99.90;;;;;;5028611;28;20029;-73
2023/10/13 07:28:21;;;;;;;14.02;7.25;;;17.30;99.90;;;;;;5021526;28;19991;-70
2023/10/13 07:33:21;;;;;;;15.88;7.20;;;17.30;99.90;;;;;;5028050;28;22201;-73
2023/10/13 07:36:00;;;;;;;13.63;7.95;;;17.30;99.90;;;;;;5026592;28;20040;-71
2023/10/13 07:38:30;;;;;;;9.57;6.75;;;17.30;99.90;;;;;;5026189;28;20040;-70
2023/10/13 07:41:07;;;;;;;10.52;7.20;;;17.30;99.90;;;;;;5029325;28;20029;-71
2023/10/13 07:43:33;;;;;;;11.10;6.97;;;17.20;99.90;;;;;;5034051;28;20037;-70
2023/10/13 07:45:59;;;;;;;18.45;8.32;;;17.20;99.90;;;;;;5025421;28;20030;-70
2023/10/13 07:48:29;;;;;;;14.30;6.78;;;17.30;99.90;;;;;;5024559;28;20632;-70
2023/10/13 07:51:11;;;;;;;12.80;7.10;;;17.30;99.90;;;;;;5029744;28;20399;-72
2023/10/13 07:53:40;;;;;;;11.38;6.93;;;17.30;99.90;;;;;;5024808;28;20029;-70
2023/10/13 07:56:11;;;;;;;12.48;6.80;;;17.30;99.90;;;;;;5030698;28;20017;-73
2023/10/13 07:58:47;;;;;;;13.68;7.85;;;17.40;99.90;;;;;;5029037;28;20124;-71
2023/10/13 08:01:17;;;;;;;14.48;7.35;;;17.30;99.90;;;;;;5011855;28;20612;-71
2023/10/13 08:03:45;;;;;;;16.63;7.38;;;17.30;99.90;;;;;;5026002;28;20017;-71
2023/10/13 08:06:20;;;;;;;10.20;6.90;;;17.40;99.90;;;;;;5013933;28;20128;-71
2023/10/13 08:08:49;;;;;;;12.13;7.45;;;17.40;99.90;;;;;;5009550;28;20488;-70
2023/10/13 08:11:24;;;;;;;15.25;7.57;;;17.40;99.90;;;;;;5023250;28;20041;-70
2023/10/13 08:16:54;;;;;;;11.65;6.95;;;17.40;99.90;;;;;;5013919;28;20046;-71
2023/10/13 08:19:27;;;;;;;13.55;7.13;;;17.50;99.90;;;;;;5024449;28;20104;-70
2023/10/13 08:21:59;;;;;;;14.23;6.45;;;17.60;99.90;;;;;;5032001;28;20040;-71
2023/10/13 08:24:55;;;;;;;12.15;6.72;;;17.60;99.90;;;;;;5018583;28;20039;-71
2023/10/13 08:48:08;;;;;;;9.60;4.28;;;18.00;99.90;;;;;;5021214;28;20033;-69
2023/10/13 09:12:19;;;;;;;10.27;4.18;;;18.40;99.90;;;;;;5025283;28;20034;-71
2023/10/13 09:14:58;;;;;;;6.88;3.67;;;18.40;99.90;;;;;;5025066;28;20036;-71
2023/10/13 09:17:35;;;;;;;10.10;3.40;;;18.40;99.90;;;;;;5026560;28;20357;-71
2023/10/13 09:25:35;;;;;;;7.93;3.72;;;18.40;99.90;;;;;;5030759;28;20044;-71
2023/10/13 09:28:18;;;;;;;6.55;3.80;;;18.50;99.90;;;;;;5030900;28;20022;-71
2023/10/13 09:30:56;;;;;;;9.57;3.63;;;18.50;99.90;;;;;;5016935;28;20025;-70
2023/10/13 09:33:33;;;;;;;8.30;3.63;;;18.50;99.90;;;;;;5032343;28;20522;-70
2023/10/13 09:35:59;;;;;;;10.32;4.32;;;18.60;99.90;;;;;;5028082;28;20385;-71
2023/10/13 09:38:28;;;;;;;6.07;3.35;;;18.60;99.90;;;;;;5027051;28;20080;-71
2023/10/13 09:40:57;;;;;;;8.52;3.42;;;18.60;99.90;;;;;;5031167;28;20025;-71
2023/10/13 09:43:28;;;;;;;6.57;3.67;;;18.70;99.90;;;;;;5015212;28;20033;-71
2023/10/13 09:46:01;;;;;;;5.72;3.35;;;18.70;99.90;;;;;;5034516;28;20479;-71
2023/10/13 09:48:41;;;;;;;7.10;3.53;;;18.70;99.90;;;;;;5028445;28;20064;-71
2023/10/13 09:51:12;;;;;;;10.80;3.92;;;18.80;99.90;;;;;;5028739;28;20507;-71
2023/10/13 09:53:42;;;;;;;8.68;3.72;;;18.80;99.90;;;;;;5014512;28;20037;-71
2023/10/13 09:56:23;;;;;;;6.70;3.45;;;18.90;99.90;;;;;;5004427;28;20080;-71
2023/10/13 09:59:00;;;;;;;6.00;3.63;;;18.90;99.90;;;;;;5025933;28;20510;-71
2023/10/13 10:01:33;;;;;;;8.48;3.35;;;18.90;99.90;;;;;;5027006;28;20600;-71
2023/10/13 10:04:10;;;;;;;6.20;3.08;;;19.00;99.90;;;;;;5031480;28;20033;-71
2023/10/13 10:06:39;;;;;;;9.73;3.50;;;19.00;99.90;;;;;;5028017;28;20135;-71
2023/10/13 10:09:12;;;;;;;10.10;3.60;;;19.10;99.90;;;;;;5026036;28;20025;-71
2023/10/13 10:12:01;;;;;;;8.75;3.40;;;19.20;99.90;;;;;;5017799;28;20034;-71
2023/10/13 10:14:54;;;;;;;7.20;3.60;;;19.30;99.90;;;;;;5028739;28;20495;-71
2023/10/13 10:17:23;;;;;;;9.02;3.97;;;19.40;99.90;;;;;;5023482;28;20021;-71
2023/10/13 10:19:55;;;;;;;7.47;3.38;;;19.40;99.90;;;;;;5016807;28;20036;-71
2023/10/13 10:22:33;;;;;;;13.80;4.00;;;19.40;99.90;;;;;;5026595;28;20022;-71
2023/10/13 10:25:03;;;;;;;16.13;3.90;;;19.50;99.90;;;;;;5020938;28;20083;-71
2023/10/13 10:27:33;;;;;;;8.45;3.55;;;19.70;99.90;;;;;;5023791;28;20228;-71
2023/10/13 10:30:03;;;;;;;5.55;2.90;;;19.80;99.90;;;;;;5019651;28;20052;-71
2023/10/13 10:32:36;;;;;;;11.73;3.20;;;19.80;99.90;;;;;;5028075;28;20025;-71
2023/10/13 10:35:14;;;;;;;8.23;3.97;;;19.80;99.90;;;;;;5012789;28;20053;-71
2023/10/13 10:37:46;;;;;;;;;;;19.90;99.90;;;;;;5028575;28;20021;-71
2023/10/13 10:41:24;;;;;;;6.70;2.65;;;20.00;99.90;;;;;;5023177;28;19920;-71
2023/10/13 10:43:17;;;;;;;13.98;3.80;;;20.00;99.90;;;;;;5007051;28;20499;-71
2023/10/13 10:45:52;;;;;;;7.22;3.30;;;20.10;99.90;;;;;;5028529;28;20052;-71
2023/10/13 10:48:21;;;;;;;10.60;4.20;;;20.20;99.90;;;;;;5027667;28;20037;-72
2023/10/13 10:50:54;;;;;;;16.58;4.10;;;20.20;99.90;;;;;;5027331;28;20026;-72
2023/10/13 10:53:33;;;;;;;13.10;3.45;;;20.30;99.90;;;;;;5022045;28;20030;-72
2023/10/13 10:56:08;;;;;;;17.55;3.55;;;20.40;99.90;;;;;;5022566;28;20086;-72
2023/10/13 10:58:43;;;;;;;12.77;3.97;;;20.50;99.90;;;;;;5026535;28;20028;-72
2023/10/13 11:01:19;;;;;;;12.48;4.13;;;20.60;99.90;;;;;;5026950;28;20026;-71
2023/10/13 11:03:59;;;;;;;12.23;4.30;;;20.60;99.90;;;;;;5024073;28;20030;-72
2023/10/13 11:06:26;;;;;;;13.90;4.07;;;20.60;99.90;;;;;;5023602;28;20029;-71
2023/10/13 11:09:31;;;;;;;24.27;4.93;;;20.60;99.90;;;;;;5013326;28;20036;-71
2023/10/13 11:12:15;;;;;;;8.90;4.00;;;20.60;99.90;;;;;;5024596;28;20365;-72
2023/10/13 11:14:42;;;;;;;7.28;3.70;;;20.70;99.90;;;;;;5024757;28;20367;-71
2023/10/13 11:17:21;;;;;;;6.88;3.38;;;20.90;99.90;;;;;;5022188;28;20494;-71
2023/10/13 11:19:54;;;;;;;11.73;4.10;;;20.90;99.90;;;;;;5027354;28;20037;-72
2023/10/13 11:22:36;;;;;;;10.65;4.40;;;21.00;99.90;;;;;;5031332;28;20041;-71
2023/10/13 11:25:14;;;;;;;9.43;3.85;;;21.10;99.90;;;;;;5026224;28;20026;-72
2023/10/13 11:30:14;;;;;;;12.68;3.92;;;21.60;99.90;;;;;;5029167;28;20067;-72
2023/10/13 11:32:45;;;;;;;5.88;3.08;;;21.80;99.90;;;;;;5026679;28;20053;-72
2023/10/13 11:35:20;;;;;;;6.72;2.55;;;21.80;99.90;;;;;;5028727;28;20067;-72
2023/10/13 11:37:55;;;;;;;10.23;4.10;;;21.90;99.90;;;;;;5024894;28;20013;-72
2023/10/13 11:40:43;;;;;;;12.73;4.13;;;22.00;99.90;;;;;;5028227;28;20045;-72
2023/10/13 11:43:13;;;;;;;9.95;4.15;;;22.00;99.90;;;;;;5024398;28;20042;-72
2023/10/13 11:46:12;;;;;;;10.25;4.03;;;22.10;99.90;;;;;;5028091;28;20057;-72
2023/10/13 11:48:43;;;;;;;13.88;3.67;;;22.10;99.90;;;;;;5025285;28;20037;-72
2023/10/13 11:51:17;;;;;;;11.32;3.58;;;22.20;99.90;;;;;;5027124;28;20061;-73
2023/10/13 11:53:53;;;;;;;14.15;4.05;;;22.20;99.90;;;;;;5023166;28;20028;-72
2023/10/13 11:56:22;;;;;;;8.80;3.60;;;22.00;99.90;;;;;;5025808;28;20021;-72
2023/10/13 11:58:53;;;;;;;17.52;4.18;;;22.00;99.90;;;;;;5024752;28;20022;-72
2023/10/13 12:11:50;;;;;;;14.80;4.10;;;22.30;99.90;;;;;;5022247;28;20029;-72
2023/10/13 12:14:17;;;;;;;14.43;4.00;;;22.50;99.90;;;;;;5027061;28;20026;-73
2023/10/13 12:16:48;;;;;;;11.95;3.83;;;22.60;99.90;;;;;;5022468;28;20156;-72
2023/10/13 12:19:23;;;;;;;8.20;3.75;;;22.60;99.90;;;;;;5021945;28;20108;-72
2023/10/13 12:21:50;;;;;;;14.10;4.93;;;22.50;99.90;;;;;;5022736;28;20133;-72
2023/10/13 12:27:02;;;;;;;9.35;3.72;;;22.20;99.90;;;;;;5024684;28;20033;-73
2023/10/13 12:29:28;;;;;;;16.58;4.28;;;22.10;99.90;;;;;;5027263;28;20029;-72
2023/10/13 12:32:12;;;;;;;13.07;4.70;;;22.10;99.90;;;;;;5008412;28;20021;-72
2023/10/13 12:51:20;;;;;;;;;;;21.90;99.90;;;;;;5027585;28;20041;-73
2023/10/13 12:53:51;;;;;;;20.55;4.90;;;21.80;99.90;;;;;;5024043;28;19956;-72
2023/10/13 12:56:18;;;;;;;12.02;5.20;;;21.80;99.90;;;;;;5024727;28;20025;-72
2023/10/13 12:58:52;;;;;;;17.70;5.00;;;21.80;99.90;;;;;;5019154;28;20034;-72
2023/10/13 13:01:32;;;;;;;12.90;5.00;;;21.90;99.90;;;;;;5023880;28;20365;-72
2023/10/13 13:03:59;;;;;;;13.55;4.68;;;21.80;99.90;;;;;;5022631;28;20029;-72
2023/10/13 13:06:26;;;;;;;18.10;4.78;;;21.80;99.90;;;;;;5024980;28;20036;-74
2023/10/13 13:08:52;;;;;;;9.65;5.03;;;21.80;99.90;;;;;;5026097;28;20025;-73
2023/10/13 13:11:20;;;;;;;16.33;4.80;;;21.80;99.90;;;;;;5010226;28;20083;-73
2023/10/13 13:13:46;;;;;;;;;;;21.80;99.90;;;;;;5025343;28;20160;-73
2023/10/13 13:16:13;;;;;;;8.68;3.75;;;21.80;99.90;;;;;;5026151;28;20035;-73
2023/10/13 13:18:39;;;;;;;19.95;5.93;;;21.80;99.90;;;;;;5024521;28;20029;-73
2023/10/13 13:21:06;;;;;;;12.00;4.55;;;21.90;99.90;;;;;;5024262;28;20030;-72
2023/10/13 13:23:34;;;;;;;12.13;4.18;;;22.00;99.90;;;;;;5009733;28;20034;-72
2023/10/13 13:26:08;;;;;;;21.40;5.38;;;22.00;99.90;;;;;;5025900;28;20238;-72
2023/10/13 13:28:37;;;;;;;20.75;4.68;;;22.10;99.90;;;;;;5022722;28;20040;-72
2023/10/13 13:31:07;;;;;;;20.35;5.45;;;22.10;99.90;;;;;;5022765;28;20170;-73
2023/10/13 13:33:38;;;;;;;18.40;5.53;;;22.10;99.90;;;;;;5004758;28;20040;-68
2023/10/13 13:36:13;;;;;;;19.58;4.60;;;22.20;99.90;;;;;;5026758;28;20399;-67
2023/10/13 13:38:40;;;;;;;17.15;5.22;;;22.20;99.90;;;;;;5010110;28;22020;-67
2023/10/13 13:41:19;;;;;;;8.80;3.95;;;22.10;99.90;;;;;;5030202;28;20057;-67
2023/10/13 13:44:00;;;;;;;12.25;4.97;;;22.10;99.90;;;;;;5025406;28;20064;-67
2023/10/13 13:46:32;;;;;;;16.33;4.35;;;22.20;99.90;;;;;;5024504;28;20483;-67
2023/10/13 13:49:01;;;;;;;20.55;5.10;;;22.10;99.90;;;;;;5022647;28;20053;-67
2023/10/13 13:51:32;;;;;;;15.10;5.68;;;22.10;99.90;;;;;;5028922;28;20030;-67
2023/10/13 13:54:00;;;;;;;15.05;4.13;;;22.10;99.90;;;;;;5025162;28;20028;-67
2023/10/13 13:56:28;;;;;;;15.10;4.63;;;22.10;99.90;;;;;;5013260;28;20029;-67
2023/10/13 13:58:54;;;;;;;;;;;22.10;99.90;;;;;;5031523;28;20017;-67
2023/10/13 14:01:26;;;;;;;26.10;5.43;;;22.10;99.90;;;;;;5023690;28;19920;-67
2023/10/13 14:03:56;;;;;;;16.20;5.15;;;22.10;99.90;;;;;;5027728;28;20029;-67
2023/10/13 14:06:25;;;;;;;12.50;4.43;;;22.10;99.90;;;;;;5025905;28;20025;-67
2023/10/13 14:08:54;;;;;;;14.23;4.63;;;22.20;99.90;;;;;;5025604;28;20033;-67
2023/10/13 14:16:51;;;;;;;18.02;5.88;;;22.60;99.90;;;;;;5027226;28;20024;-67
2023/10/13 14:19:26;;;;;;;21.63;4.78;;;22.60;99.90;;;;;;5031885;28;20736;-67
2023/10/13 14:21:55;;;;;;;16.20;4.22;;;22.70;99.90;;;;;;5031636;28;20041;-65
2023/10/13 14:24:27;;;;;;;18.35;4.93;;;22.70;99.90;;;;;;5025281;28;20021;-60
2023/10/13 14:27:19;;;;;;;19.65;5.38;;;22.70;99.90;;;;;;5025500;28;20037;-60
2023/10/13 14:29:45;;;;;;;16.10;4.82;;;22.70;99.90;;;;;;5030070;28;20037;-59
2023/10/13 14:32:14;;;;;;;16.88;4.72;;;22.80;99.90;;;;;;5027793;28;20034;-66
2023/10/13 14:34:48;;;;;;;18.30;4.47;;;22.80;99.90;;;;;;5014028;28;20025;-66
2023/10/13 14:37:26;;;;;;;11.43;4.22;;;22.70;99.90;;;;;;5030715;28;20040;-65
2023/10/13 14:39:56;;;;;;;18.35;4.60;;;22.80;99.90;;;;;;5029495;28;20785;-65
2023/10/13 14:42:28;;;;;;;13.40;4.22;;;22.90;99.90;;;;;;5031790;28;20506;-64
2023/10/13 14:44:56;;;;;;;20.42;4.68;;;22.90;99.90;;;;;;5028840;28;20044;-63
2023/10/13 14:47:28;;;;;;;12.55;4.53;;;23.00;99.30;;;;;;5034735;28;20100;-64
2023/10/13 14:49:59;;;;;;;15.25;4.78;;;23.00;99.40;;;;;;5031790;28;20029;-64
2023/10/13 14:52:31;;;;;;;12.93;4.22;;;22.90;99.60;;;;;;5025648;28;20391;-67
2023/10/13 14:54:57;;;;;;;10.43;4.30;;;22.90;99.60;;;;;;5028143;28;20025;-67
2023/10/13 14:57:26;;;;;;;14.05;4.03;;;22.90;99.40;;;;;;5029407;28;20033;-68
2023/10/13 14:59:58;;;;;;;15.32;4.03;;;22.90;98.70;;;;;;5027555;28;20018;-63
2023/10/13 15:02:24;;;;;;;13.13;4.53;;;23.00;98.50;;;;;;5025059;28;20024;-63
2023/10/13 15:04:50;;;;;;;18.58;4.88;;;22.90;99.00;;;;;;5023712;28;20033;-63
2023/10/13 15:07:17;;;;;;;31.48;4.68;;;22.90;98.80;;;;;;5030573;28;20606;-67
2023/10/13 15:09:46;;;;;;;9.07;4.40;;;22.80;98.40;;;;;;5034310;28;20026;-66
2023/10/13 15:12:17;;;;;;;17.40;4.53;;;22.80;99.30;;;;;;5031631;28;20278;-70
2023/10/13 15:14:45;;;;;;;12.73;4.50;;;22.80;99.00;;;;;;5031121;28;20040;-69
2023/10/13 15:17:10;;;;;;;;;;;22.60;99.40;;;;;;5031868;28;20044;-69
2023/10/13 15:19:38;;;;;;;18.08;5.00;;;22.60;99.50;;;;;;5027940;28;20003;-64
2023/10/13 15:22:16;;;;;;;;;;;22.60;99.50;;;;;;5028058;28;20033;-64
2023/10/13 15:24:57;;;;;;;16.25;4.72;;;22.50;99.90;;;;;;5010937;28;20000;-64
2023/10/13 15:27:28;;;;;;;13.80;4.90;;;22.50;99.50;;;;;;5021841;28;20040;-64
2023/10/13 15:29:54;;;;;;;18.05;4.90;;;22.50;99.50;;;;;;5024945;28;20593;-64
2023/10/13 15:35:12;;;;;;;12.23;4.03;;;22.40;99.70;;;;;;5030590;28;20043;-65
2023/10/13 15:37:41;;;;;;;19.23;4.97;;;22.50;99.60;;;;;;5030654;28;20021;-65
2023/10/13 15:40:15;;;;;;;12.63;4.80;;;22.40;99.80;;;;;;5026819;28;20029;-65
2023/10/13 15:42:44;;;;;;;22.70;5.95;;;22.30;99.90;;;;;;5026939;28;20133;-66
2023/10/13 15:45:18;;;;;;;16.70;4.70;;;22.30;99.90;;;;;;5026855;28;20033;-67
2023/10/13 15:47:47;;;;;;;14.43;5.80;;;22.30;99.60;;;;;;5027108;28;20018;-67
2023/10/13 15:50:20;;;;;;;12.77;4.07;;;22.40;99.70;;;;;;5028093;28;20021;-67
2023/10/13 15:52:46;;;;;;;16.35;4.90;;;22.40;99.80;;;;;;5022261;28;20025;-67
2023/10/13 15:55:17;;;;;;;20.20;5.65;;;22.40;99.60;;;;;;5023841;28;20029;-67
2023/10/13 15:57:44;;;;;;;18.75;5.00;;;22.40;99.60;;;;;;5025948;28;20128;-67
2023/10/13 16:00:29;;;;;;;11.48;4.38;;;22.30;99.80;;;;;;5022449;28;20088;-67
2023/10/13 16:02:59;;;;;;;19.67;5.28;;;22.30;99.60;;;;;;5021481;28;20033;-64
2023/10/13 16:05:35;;;;;;;12.35;5.45;;;22.40;99.60;;;;;;5019418;28;20638;-66
2023/10/13 16:08:06;;;;;;;15.98;4.90;;;22.30;99.70;;;;;;5022186;28;20030;-65
2023/10/13 16:10:34;;;;;;;24.80;6.45;;;22.30;99.60;;;;;;5027933;28;20030;-65
2023/10/13 16:13:04;;;;;;;26.48;5.65;;;22.30;99.60;;;;;;5026614;28;20621;-66
2023/10/13 16:15:30;;;;;;;18.60;5.40;;;22.30;99.50;;;;;;5021546;28;20117;-64
2023/10/13 16:17:55;;;;;;;20.08;5.47;;;22.30;99.60;;;;;;5026598;28;20116;-66
2023/10/13 16:20:27;;;;;;;19.17;4.57;;;22.30;99.70;;;;;;5028873;28;20030;-65
2023/10/13 16:22:56;;;;;;;15.30;4.65;;;22.20;99.50;;;;;;5021592;28;20106;-65
2023/10/13 16:25:24;;;;;;;12.50;4.72;;;22.30;99.60;;;;;;5019766;28;20109;-65